createdAt,value
2023-04-26T00:00:04.551Z,146.72
2023-04-26T00:01:04.617Z,147.68
2023-04-26T00:02:04.713Z,147.43
2023-04-26T00:03:04.900Z,146.52
2023-04-26T00:04:05.158Z,147.00
2023-04-26T00:05:05.135Z,147.30
2023-04-26T00:06:04.861Z,146.08
2023-04-26T00:07:04.889Z,145.55
2023-04-26T00:08:04.942Z,146.36
2023-04-26T00:09:04.988Z,145.80
2023-04-26T00:10:05.043Z,145.38
2023-04-26T00:11:05.094Z,144.60
2023-04-26T00:12:05.140Z,145.63
2023-04-26T00:13:05.184Z,145.53
2023-04-26T00:14:05.315Z,145.67
2023-04-26T00:15:06.041Z,146.90
2023-04-26T00:16:05.420Z,146.69
2023-04-26T00:17:05.407Z,146.61
2023-04-26T00:18:05.563Z,146.78
2023-04-26T00:19:05.492Z,146.10
2023-04-26T00:20:05.579Z,146.78
2023-04-26T00:21:05.616Z,146.03
2023-04-26T00:22:05.661Z,147.11
2023-04-26T00:23:05.734Z,147.43
2023-04-26T00:24:05.792Z,147.23
2023-04-26T00:25:05.866Z,147.81
2023-04-26T00:26:05.962Z,147.46
2023-04-26T00:27:05.956Z,146.63
2023-04-26T00:28:06.010Z,146.66
2023-04-26T00:29:06.089Z,146.98
2023-04-26T00:30:06.128Z,146.01
2023-04-26T00:31:06.271Z,147.16
2023-04-26T00:32:06.433Z,146.58
2023-04-26T00:33:06.339Z,146.37
2023-04-26T00:34:06.374Z,145.94
2023-04-26T00:35:07.048Z,146.00
2023-04-26T00:36:06.547Z,146.11
2023-04-26T00:37:06.542Z,146.01
2023-04-26T00:38:06.612Z,145.45
2023-04-26T00:39:06.680Z,145.81
2023-04-26T00:40:06.751Z,145.98
2023-04-26T00:41:06.790Z,145.95
2023-04-26T00:42:06.839Z,146.20
2023-04-26T00:43:06.916Z,145.94
2023-04-26T00:44:07.583Z,146.64
2023-04-26T00:45:07.016Z,147.17
2023-04-26T00:46:07.124Z,147.09
2023-04-26T00:47:07.157Z,145.73
2023-04-26T00:48:07.235Z,146.52
2023-04-26T00:49:07.237Z,146.05
2023-04-26T00:50:07.282Z,146.68
2023-04-26T00:51:07.341Z,147.10
2023-04-26T00:52:07.408Z,147.02
2023-04-26T00:53:07.425Z,147.19
2023-04-26T00:54:07.472Z,147.03
2023-04-26T00:55:07.546Z,146.59
2023-04-26T00:56:07.592Z,146.61
2023-04-26T00:57:07.641Z,146.29
2023-04-26T00:58:07.691Z,145.96
2023-04-26T00:59:07.747Z,145.87
2023-04-26T01:00:07.830Z,145.53
2023-04-26T01:01:07.955Z,146.20
2023-04-26T01:02:07.946Z,145.13
2023-04-26T01:03:08.123Z,144.74
2023-04-26T01:04:08.074Z,144.99
2023-04-26T01:05:08.031Z,145.61
2023-04-26T01:06:08.114Z,144.57
2023-04-26T01:07:08.130Z,144.11
2023-04-26T01:08:08.183Z,143.81
2023-04-26T01:09:08.226Z,143.38
2023-04-26T01:10:08.287Z,144.63
2023-04-26T01:11:08.330Z,144.62
2023-04-26T01:12:08.388Z,143.90
2023-04-26T01:13:08.433Z,143.05
2023-04-26T01:14:08.486Z,143.94
2023-04-26T01:15:08.522Z,143.55
2023-04-26T01:16:08.551Z,143.21
2023-04-26T01:17:08.714Z,142.59
2023-04-26T01:18:08.604Z,142.56
2023-04-26T01:19:08.647Z,142.30
2023-04-26T01:20:08.678Z,142.92
2023-04-26T01:21:08.698Z,142.83
2023-04-26T01:22:08.742Z,143.49
2023-04-26T01:23:09.076Z,143.12
2023-04-26T01:24:08.794Z,142.28
2023-04-26T01:25:08.829Z,142.54
2023-04-26T01:26:08.916Z,142.80
2023-04-26T01:27:08.879Z,142.62
2023-04-26T01:28:08.903Z,142.75
2023-04-26T01:29:08.918Z,142.37
2023-04-26T01:30:08.954Z,142.30
2023-04-26T01:31:09.011Z,141.98
2023-04-26T01:32:09.021Z,141.72
2023-04-26T01:33:09.087Z,142.70
2023-04-26T01:34:09.097Z,143.07
2023-04-26T01:35:09.135Z,142.65
2023-04-26T01:36:09.170Z,141.72
2023-04-26T01:37:09.198Z,142.14
2023-04-26T01:38:09.221Z,141.79
2023-04-26T01:39:09.234Z,142.62
2023-04-26T01:40:09.241Z,141.77
2023-04-26T01:41:09.251Z,142.60
2023-04-26T01:42:09.296Z,141.97
2023-04-26T01:43:09.318Z,141.49
2023-04-26T01:44:09.371Z,141.57
2023-04-26T01:45:09.384Z,142.43
2023-04-26T01:46:09.440Z,142.06
2023-04-26T01:47:09.410Z,142.08
2023-04-26T01:48:09.480Z,142.59
2023-04-26T01:49:09.585Z,142.18
2023-04-26T01:50:09.506Z,142.85
2023-04-26T01:51:09.525Z,142.76
2023-04-26T01:52:09.551Z,142.94
2023-04-26T01:53:09.590Z,143.60
2023-04-26T01:54:09.637Z,142.94
2023-04-26T01:55:09.653Z,142.92
2023-04-26T01:56:09.679Z,143.50
2023-04-26T01:57:09.725Z,143.24
2023-04-26T01:58:09.747Z,142.87
2023-04-26T01:59:09.773Z,142.82
2023-04-26T02:00:09.815Z,143.20
2023-04-26T02:01:09.876Z,143.13
2023-04-26T02:02:10.085Z,142.69
2023-04-26T02:03:10.082Z,144.49
2023-04-26T02:04:09.966Z,142.97
2023-04-26T02:05:10.059Z,143.28
2023-04-26T02:06:10.077Z,141.92
2023-04-26T02:07:10.124Z,142.81
2023-04-26T02:08:10.159Z,142.18
2023-04-26T02:09:10.198Z,143.19
2023-04-26T02:10:10.216Z,143.67
2023-04-26T02:11:10.259Z,143.38
2023-04-26T02:12:10.302Z,143.63
2023-04-26T02:13:10.327Z,143.06
2023-04-26T02:14:10.359Z,142.77
2023-04-26T02:15:10.403Z,142.55
2023-04-26T02:16:10.434Z,142.03
2023-04-26T02:17:10.457Z,141.59
2023-04-26T02:18:10.535Z,142.08
2023-04-26T02:19:10.540Z,142.62
2023-04-26T02:20:10.599Z,142.10
2023-04-26T02:21:10.639Z,141.59
2023-04-26T02:22:10.632Z,142.64
2023-04-26T02:23:10.649Z,143.05
2023-04-26T02:24:10.656Z,143.04
2023-04-26T02:25:10.747Z,143.67
2023-04-26T02:26:10.738Z,143.51
2023-04-26T02:27:10.745Z,142.69
2023-04-26T02:28:10.675Z,144.53
2023-04-26T02:29:10.685Z,143.00
2023-04-26T02:30:10.690Z,143.22
2023-04-26T02:31:10.749Z,142.76
2023-04-26T02:32:10.706Z,143.57
2023-04-26T02:33:10.710Z,143.00
2023-04-26T02:34:10.735Z,143.25
2023-04-26T02:35:10.743Z,143.25
2023-04-26T02:36:10.752Z,143.10
2023-04-26T02:37:10.772Z,142.79
2023-04-26T02:38:10.796Z,143.64
2023-04-26T02:39:10.827Z,143.58
2023-04-26T02:40:10.876Z,143.52
2023-04-26T02:41:10.874Z,144.29
2023-04-26T02:42:10.959Z,143.44
2023-04-26T02:43:10.943Z,143.19
2023-04-26T02:44:10.964Z,143.28
2023-04-26T02:45:11.003Z,143.83
2023-04-26T02:46:11.098Z,142.53
2023-04-26T02:47:11.074Z,143.34
2023-04-26T02:48:11.085Z,142.26
2023-04-26T02:49:11.104Z,143.24
2023-04-26T02:50:11.607Z,143.64
2023-04-26T02:51:11.173Z,143.62
2023-04-26T02:52:11.115Z,143.75
2023-04-26T02:53:11.137Z,142.54
2023-04-26T02:54:11.224Z,143.05
2023-04-26T02:55:11.202Z,142.75
2023-04-26T02:56:11.250Z,143.36
2023-04-26T02:57:11.281Z,142.34
2023-04-26T02:58:11.315Z,142.24
2023-04-26T02:59:11.329Z,142.46
2023-04-26T03:00:11.357Z,141.82
2023-04-26T03:01:11.486Z,141.27
2023-04-26T03:02:11.509Z,141.35
2023-04-26T03:03:11.612Z,141.27
2023-04-26T03:04:11.697Z,142.35
2023-04-26T03:05:11.591Z,142.01
2023-04-26T03:06:11.636Z,142.33
2023-04-26T03:07:11.687Z,142.98
2023-04-26T03:08:11.736Z,142.32
2023-04-26T03:09:11.780Z,141.62
2023-04-26T03:10:11.845Z,142.39
2023-04-26T03:11:11.908Z,142.80
2023-04-26T03:12:11.965Z,143.02
2023-04-26T03:13:12.034Z,142.45
2023-04-26T03:14:12.079Z,143.89
2023-04-26T03:15:12.122Z,144.50
2023-04-26T03:16:12.203Z,143.53
2023-04-26T03:17:12.303Z,142.30
2023-04-26T03:18:12.291Z,142.83
2023-04-26T03:19:12.341Z,142.96
2023-04-26T03:20:12.392Z,143.06
2023-04-26T03:21:12.492Z,142.48
2023-04-26T03:22:12.479Z,142.41
2023-04-26T03:23:12.520Z,142.71
2023-04-26T03:24:12.576Z,142.49
2023-04-26T03:25:12.621Z,142.28
2023-04-26T03:26:12.674Z,141.39
2023-04-26T03:27:12.708Z,142.60
2023-04-26T03:28:12.757Z,142.32
2023-04-26T03:29:12.802Z,143.95
2023-04-26T03:30:12.831Z,143.94
2023-04-26T03:31:12.868Z,142.85
2023-04-26T03:32:12.939Z,143.38
2023-04-26T03:33:13.029Z,142.41
2023-04-26T03:34:12.999Z,143.53
2023-04-26T03:35:13.029Z,143.40
2023-04-26T03:36:13.047Z,144.46
2023-04-26T03:37:13.089Z,143.86
2023-04-26T03:38:13.125Z,144.01
2023-04-26T03:39:13.178Z,143.43
2023-04-26T03:40:13.196Z,143.68
2023-04-26T03:41:13.241Z,143.99
2023-04-26T03:42:13.269Z,141.51
2023-04-26T03:43:13.281Z,142.72
2023-04-26T03:44:13.331Z,142.50
2023-04-26T03:45:13.340Z,143.03
2023-04-26T03:46:13.418Z,141.48
2023-04-26T03:47:13.414Z,143.95
2023-04-26T03:48:13.470Z,142.80
2023-04-26T03:49:13.630Z,142.87
2023-04-26T03:50:13.519Z,141.86
2023-04-26T03:51:13.548Z,141.14
2023-04-26T03:52:13.574Z,143.95
2023-04-26T03:53:13.601Z,141.97
2023-04-26T03:54:13.632Z,142.20
2023-04-26T03:55:13.662Z,142.04
2023-04-26T03:56:13.691Z,143.45
2023-04-26T03:57:13.713Z,143.63
2023-04-26T03:58:13.746Z,142.76
2023-04-26T03:59:13.776Z,144.30
2023-04-26T04:00:13.792Z,145.39
2023-04-26T04:01:13.810Z,142.37
2023-04-26T04:02:14.081Z,141.60
2023-04-26T04:03:14.001Z,141.75
2023-04-26T04:04:14.143Z,141.78
2023-04-26T04:05:14.009Z,143.85
2023-04-26T04:06:13.932Z,143.60
2023-04-26T04:07:13.973Z,142.37
2023-04-26T04:08:13.977Z,142.50
2023-04-26T04:09:14.002Z,142.47
2023-04-26T04:10:14.082Z,141.85
2023-04-26T04:11:14.056Z,142.47
2023-04-26T04:12:14.067Z,142.65
2023-04-26T04:13:14.086Z,142.87
2023-04-26T04:14:14.107Z,144.38
2023-04-26T04:15:14.138Z,143.19
2023-04-26T04:16:14.226Z,144.27
2023-04-26T04:17:14.190Z,144.14
2023-04-26T04:18:14.270Z,142.66
2023-04-26T04:19:14.272Z,143.72
2023-04-26T04:20:14.282Z,142.69
2023-04-26T04:21:14.316Z,142.24
2023-04-26T04:22:14.355Z,143.91
2023-04-26T04:23:14.372Z,142.44
2023-04-26T04:24:14.419Z,140.58
2023-04-26T04:25:14.432Z,142.43
2023-04-26T04:26:14.450Z,142.00
2023-04-26T04:27:14.480Z,142.14
2023-04-26T04:28:14.517Z,140.16
2023-04-26T04:29:14.541Z,142.10
2023-04-26T04:30:14.579Z,142.36
2023-04-26T04:31:14.784Z,143.11
2023-04-26T04:32:14.645Z,142.71
2023-04-26T04:33:14.675Z,142.67
2023-04-26T04:34:14.709Z,142.19
2023-04-26T04:35:14.747Z,142.79
2023-04-26T04:36:14.792Z,143.02
2023-04-26T04:37:14.826Z,141.95
2023-04-26T04:38:14.861Z,143.89
2023-04-26T04:39:14.881Z,144.03
2023-04-26T04:40:14.944Z,141.86
2023-04-26T04:41:14.956Z,142.31
2023-04-26T04:42:14.991Z,144.24
2023-04-26T04:43:15.030Z,142.18
2023-04-26T04:44:15.083Z,142.25
2023-04-26T04:45:15.116Z,141.98
2023-04-26T04:46:15.168Z,143.28
2023-04-26T04:47:15.185Z,142.53
2023-04-26T04:48:15.233Z,142.26
2023-04-26T04:49:15.293Z,143.13
2023-04-26T04:50:15.358Z,142.83
2023-04-26T04:51:15.349Z,140.40
2023-04-26T04:52:17.573Z,142.50
2023-04-26T04:53:15.435Z,142.93
2023-04-26T04:54:15.369Z,139.53
2023-04-26T04:55:15.379Z,140.28
2023-04-26T04:56:15.345Z,139.32
2023-04-26T04:57:15.343Z,139.80
2023-04-26T04:58:15.341Z,139.35
2023-04-26T04:59:15.390Z,140.24
2023-04-26T05:00:15.385Z,137.71
2023-04-26T05:01:15.316Z,140.25
2023-04-26T05:02:15.425Z,139.65
2023-04-26T05:03:15.497Z,140.71
2023-04-26T05:04:15.522Z,140.50
2023-04-26T05:05:15.328Z,139.76
2023-04-26T05:06:15.276Z,141.76
2023-04-26T05:07:15.291Z,140.15
2023-04-26T05:08:15.261Z,141.96
2023-04-26T05:09:15.271Z,142.42
2023-04-26T05:10:15.261Z,139.58
2023-04-26T05:11:15.238Z,140.92
2023-04-26T05:12:15.240Z,140.54
2023-04-26T05:13:15.242Z,138.87
2023-04-26T05:14:15.218Z,139.18
2023-04-26T05:15:15.213Z,139.82
2023-04-26T05:16:15.256Z,138.83
2023-04-26T05:17:15.217Z,141.55
2023-04-26T05:18:15.194Z,141.40
2023-04-26T05:19:15.181Z,141.27
2023-04-26T05:20:15.192Z,140.09
2023-04-26T05:21:15.172Z,129.57
2023-04-26T05:22:15.157Z,88.28
2023-04-26T05:23:15.177Z,71.55
2023-04-26T05:24:15.236Z,59.70
2023-04-26T05:25:15.207Z,37.71
2023-04-26T05:26:15.140Z,35.99
2023-04-26T05:27:15.133Z,33.93
2023-04-26T05:28:15.118Z,33.01
2023-04-26T05:29:15.179Z,34.16
2023-04-26T05:30:15.115Z,36.22
2023-04-26T05:31:15.179Z,22.99
2023-04-26T05:32:15.678Z,25.06
2023-04-26T05:33:15.120Z,25.24
2023-04-26T05:34:15.084Z,25.35
2023-04-26T05:35:15.083Z,25.29
2023-04-26T05:36:15.073Z,25.00
2023-04-26T05:37:15.077Z,25.65
2023-04-26T05:38:15.110Z,25.00
2023-04-26T05:39:15.079Z,25.00
2023-04-26T05:40:15.087Z,25.00
2023-04-26T05:41:15.092Z,25.00
2023-04-26T05:42:17.516Z,25.68
2023-04-26T05:43:15.074Z,25.00
2023-04-26T05:44:15.071Z,25.57
2023-04-26T05:45:15.225Z,25.00
2023-04-26T05:46:15.096Z,25.00
2023-04-26T05:47:15.034Z,25.00
2023-04-26T05:48:15.150Z,26.70
2023-04-26T05:49:15.143Z,27.25
2023-04-26T05:50:15.035Z,27.20
2023-04-26T05:51:15.068Z,25.91
2023-04-26T05:52:15.005Z,25.81
2023-04-26T05:53:15.677Z,29.64
2023-04-26T05:54:14.992Z,34.04
2023-04-26T05:55:14.995Z,40.58
2023-04-26T05:56:15.001Z,39.92
2023-04-26T05:57:15.042Z,44.92
2023-04-26T05:58:14.988Z,49.35
2023-04-26T05:59:14.956Z,49.96
2023-04-26T06:00:14.952Z,51.67
2023-04-26T06:01:14.949Z,52.43
2023-04-26T06:02:15.060Z,50.76
2023-04-26T06:03:15.250Z,45.66
2023-04-26T06:04:15.203Z,40.20
2023-04-26T06:05:15.147Z,40.76
2023-04-26T06:06:14.902Z,37.91
2023-04-26T06:07:15.702Z,32.85
2023-04-26T06:08:14.894Z,32.47
2023-04-26T06:09:14.882Z,35.05
2023-04-26T06:10:14.884Z,34.98
2023-04-26T06:11:14.905Z,25.00
2023-04-26T06:12:14.876Z,20.95
2023-04-26T06:13:14.863Z,26.99
2023-04-26T06:14:29.262Z,25.45
2023-04-26T06:15:15.847Z,20.28
2023-04-26T06:16:14.891Z,9.38
2023-04-26T06:17:14.951Z,3.98
2023-04-26T06:18:14.883Z,1.39
2023-04-26T06:19:14.882Z,4.84
2023-04-26T06:20:14.801Z,12.93
2023-04-26T06:21:14.799Z,22.78
2023-04-26T06:22:14.785Z,33.51
2023-04-26T06:23:14.787Z,37.18
2023-04-26T06:24:14.768Z,34.15
2023-04-26T06:25:14.769Z,29.35
2023-04-26T06:26:14.799Z,29.56
2023-04-26T06:27:14.758Z,32.85
2023-04-26T06:28:14.754Z,40.76
2023-04-26T06:29:14.790Z,44.27
2023-04-26T06:30:14.845Z,52.78
2023-04-26T06:31:14.943Z,52.99
2023-04-26T06:32:14.884Z,60.27
2023-04-26T06:33:14.867Z,63.17
2023-04-26T06:34:14.872Z,62.20
2023-04-26T06:35:14.884Z,69.99
2023-04-26T06:36:14.896Z,79.24
2023-04-26T06:37:14.950Z,92.23
2023-04-26T06:38:15.020Z,100.01
2023-04-26T06:39:15.127Z,107.05
2023-04-26T06:40:15.082Z,113.87
2023-04-26T06:41:15.170Z,117.86
2023-04-26T06:42:15.195Z,122.81
2023-04-26T06:43:15.095Z,127.64
2023-04-26T06:44:15.126Z,130.69
2023-04-26T06:45:15.714Z,134.74
2023-04-26T06:46:15.327Z,140.71
2023-04-26T06:47:15.283Z,146.06
2023-04-26T06:48:15.337Z,149.12
2023-04-26T06:49:15.357Z,153.84
2023-04-26T06:50:15.411Z,158.15
2023-04-26T06:51:15.431Z,162.71
2023-04-26T06:52:15.452Z,166.43
2023-04-26T06:53:15.466Z,168.52
2023-04-26T06:54:15.473Z,172.66
2023-04-26T06:55:15.493Z,175.99
2023-04-26T06:56:15.495Z,178.88
2023-04-26T06:57:15.554Z,181.62
2023-04-26T06:58:15.555Z,184.84
2023-04-26T06:59:15.553Z,187.75
2023-04-26T07:00:15.581Z,189.61
2023-04-26T07:01:15.620Z,191.00
2023-04-26T07:02:15.938Z,193.90
2023-04-26T07:03:15.725Z,195.79
2023-04-26T07:04:15.788Z,196.62
2023-04-26T07:05:15.735Z,197.88
2023-04-26T07:06:16.210Z,200.46
2023-04-26T07:07:15.682Z,201.35
2023-04-26T07:08:15.704Z,204.35
2023-04-26T07:09:15.764Z,205.76
2023-04-26T07:10:15.759Z,208.44
2023-04-26T07:11:16.713Z,210.38
2023-04-26T07:12:15.803Z,211.72
2023-04-26T07:13:15.870Z,214.03
2023-04-26T07:14:16.025Z,215.14
2023-04-26T07:15:15.987Z,217.70
2023-04-26T07:16:16.101Z,218.32
2023-04-26T07:17:16.089Z,215.74
2023-04-26T07:18:16.320Z,219.73
2023-04-26T07:19:16.193Z,220.53
2023-04-26T07:20:16.252Z,218.58
2023-04-26T07:21:16.368Z,220.70
2023-04-26T07:22:17.215Z,222.32
2023-04-26T07:23:16.404Z,221.11
2023-04-26T07:24:16.445Z,220.92
2023-04-26T07:25:16.501Z,221.16
2023-04-26T07:26:16.544Z,217.46
2023-04-26T07:27:16.605Z,213.97
2023-04-26T07:28:16.658Z,204.41
2023-04-26T07:29:16.728Z,203.66
2023-04-26T07:30:16.946Z,201.46
2023-04-26T07:31:16.920Z,196.08
2023-04-26T07:32:16.985Z,187.99
2023-04-26T07:33:17.047Z,174.74
2023-04-26T07:34:17.047Z,162.00
2023-04-26T07:35:17.040Z,164.98
2023-04-26T07:36:17.043Z,169.91
2023-04-26T07:37:17.082Z,168.56
2023-04-26T07:38:17.088Z,173.40
2023-04-26T07:39:19.725Z,172.59
2023-04-26T07:40:18.106Z,172.76
2023-04-26T07:41:17.094Z,173.57
2023-04-26T07:42:17.088Z,175.45
2023-04-26T07:43:17.072Z,178.26
2023-04-26T07:44:17.080Z,184.83
2023-04-26T07:45:17.070Z,186.52
2023-04-26T07:46:17.142Z,186.40
2023-04-26T07:47:17.045Z,187.05
2023-04-26T07:48:17.062Z,187.92
2023-04-26T07:49:17.101Z,188.66
2023-04-26T07:50:17.051Z,189.76
2023-04-26T07:51:17.027Z,190.87
2023-04-26T07:52:17.028Z,193.09
2023-04-26T07:53:17.043Z,191.90
2023-04-26T07:54:17.000Z,191.21
2023-04-26T07:55:17.825Z,193.30
2023-04-26T07:56:17.032Z,191.81
2023-04-26T07:57:17.156Z,189.80
2023-04-26T07:58:17.099Z,190.13
2023-04-26T07:59:17.131Z,191.99
2023-04-26T08:00:17.158Z,192.29
2023-04-26T08:01:17.193Z,195.72
2023-04-26T08:02:17.381Z,194.62
2023-04-26T08:03:17.451Z,196.76
2023-04-26T08:04:17.365Z,199.13
2023-04-26T08:05:17.962Z,201.76
2023-04-26T08:06:17.394Z,203.37
2023-04-26T08:07:17.305Z,205.69
2023-04-26T08:08:18.939Z,207.65
2023-04-26T08:09:17.316Z,209.96
2023-04-26T08:10:17.325Z,211.29
2023-04-26T08:11:17.336Z,207.13
2023-04-26T08:12:17.404Z,209.63
2023-04-26T08:13:17.342Z,203.32
2023-04-26T08:14:17.746Z,194.73
2023-04-26T08:15:17.424Z,166.76
2023-04-26T08:16:17.383Z,157.39
2023-04-26T08:17:17.404Z,136.31
2023-04-26T08:18:17.420Z,135.24
2023-04-26T08:19:17.460Z,122.15
2023-04-26T08:20:17.530Z,92.81
2023-04-26T08:21:18.154Z,71.67
2023-04-26T08:22:17.646Z,51.78
2023-04-26T08:23:17.592Z,45.35
2023-04-26T08:24:17.695Z,40.20
2023-04-26T08:25:17.646Z,26.48
2023-04-26T08:26:17.658Z,22.81
2023-04-26T08:27:17.737Z,21.59
2023-04-26T08:28:18.233Z,33.24
2023-04-26T08:29:17.727Z,37.31
2023-04-26T08:30:18.733Z,44.35
2023-04-26T08:31:17.946Z,59.37
2023-04-26T08:32:17.773Z,72.53
2023-04-26T08:33:17.812Z,87.10
2023-04-26T08:34:17.872Z,97.42
2023-04-26T08:35:17.970Z,106.53
2023-04-26T08:36:17.967Z,116.55
2023-04-26T08:37:17.955Z,130.69
2023-04-26T08:38:17.983Z,141.58
2023-04-26T08:39:18.046Z,149.63
2023-04-26T08:40:18.093Z,155.56
2023-04-26T08:41:18.155Z,160.70
2023-04-26T08:42:18.204Z,162.99
2023-04-26T08:43:18.243Z,170.05
2023-04-26T08:44:18.283Z,171.27
2023-04-26T08:45:18.315Z,175.07
2023-04-26T08:46:18.459Z,179.57
2023-04-26T08:47:18.377Z,183.91
2023-04-26T08:48:18.679Z,188.60
2023-04-26T08:49:18.439Z,192.71
2023-04-26T08:50:20.162Z,192.85
2023-04-26T08:51:18.431Z,193.62
2023-04-26T08:52:18.421Z,195.81
2023-04-26T08:53:18.417Z,199.84
2023-04-26T08:54:18.416Z,208.80
2023-04-26T08:55:18.414Z,212.11
2023-04-26T08:56:18.411Z,213.73
2023-04-26T08:57:18.394Z,217.57
2023-04-26T08:58:18.455Z,219.98
2023-04-26T08:59:18.380Z,222.40
2023-04-26T09:00:18.371Z,226.25
2023-04-26T09:01:18.410Z,228.69
2023-04-26T09:02:18.430Z,232.43
2023-04-26T09:03:18.519Z,244.46
2023-04-26T09:04:18.479Z,245.50
2023-04-26T09:05:18.353Z,248.87
2023-04-26T09:06:18.339Z,250.07
2023-04-26T09:07:18.444Z,249.74
2023-04-26T09:08:18.372Z,249.83
2023-04-26T09:09:18.306Z,250.00
2023-04-26T09:10:18.301Z,250.00
2023-04-26T09:11:18.295Z,249.48
2023-04-26T09:12:18.287Z,250.00
2023-04-26T09:13:18.301Z,248.63
2023-04-26T09:14:18.271Z,250.00
2023-04-26T09:15:18.264Z,249.46
2023-04-26T09:16:18.296Z,250.19
2023-04-26T09:17:18.257Z,250.00
2023-04-26T09:18:18.271Z,249.43
2023-04-26T09:19:18.325Z,249.32
2023-04-26T09:20:18.308Z,250.00
2023-04-26T09:21:18.331Z,249.80
2023-04-26T09:22:18.337Z,249.77
2023-04-26T09:23:18.338Z,248.96
2023-04-26T09:24:18.342Z,249.27
2023-04-26T09:25:18.339Z,249.57
2023-04-26T09:26:18.360Z,248.82
2023-04-26T09:27:18.343Z,249.06
2023-04-26T09:28:18.369Z,248.25
2023-04-26T09:29:18.351Z,249.37
2023-04-26T09:30:18.357Z,248.15
2023-04-26T09:31:18.395Z,248.31
2023-04-26T09:32:18.384Z,247.99
2023-04-26T09:33:18.461Z,248.68
2023-04-26T09:34:18.404Z,246.95
2023-04-26T09:35:18.431Z,246.73
2023-04-26T09:36:18.444Z,246.56
2023-04-26T09:37:18.453Z,247.32
2023-04-26T09:38:18.513Z,245.50
2023-04-26T09:39:18.565Z,245.69
2023-04-26T09:40:18.551Z,245.07
2023-04-26T09:41:18.547Z,244.61
2023-04-26T09:42:18.590Z,244.79
2023-04-26T09:43:19.270Z,244.30
2023-04-26T09:44:18.619Z,243.41
2023-04-26T09:45:18.643Z,242.65
2023-04-26T09:46:18.764Z,240.74
2023-04-26T09:47:18.709Z,241.86
2023-04-26T09:48:18.728Z,241.68
2023-04-26T09:49:18.764Z,242.34
2023-04-26T09:50:18.816Z,241.82
2023-04-26T09:51:19.805Z,241.86
2023-04-26T09:52:18.796Z,241.91
2023-04-26T09:53:18.779Z,242.38
2023-04-26T09:54:18.772Z,242.64
2023-04-26T09:55:31.113Z,240.61
2023-04-26T09:56:19.788Z,241.89
2023-04-26T09:57:18.756Z,242.00
2023-04-26T09:58:18.749Z,241.34
2023-04-26T09:59:18.725Z,241.03
2023-04-26T10:00:18.765Z,240.77
2023-04-26T10:01:18.780Z,240.01
2023-04-26T10:02:18.753Z,239.34
2023-04-26T10:03:18.823Z,238.64
2023-04-26T10:04:18.791Z,238.01
2023-04-26T10:05:18.698Z,237.93
2023-04-26T10:06:18.698Z,239.63
2023-04-26T10:07:18.688Z,239.71
2023-04-26T10:08:18.677Z,237.30
2023-04-26T10:09:18.707Z,239.41
2023-04-26T10:10:18.840Z,239.12
2023-04-26T10:11:18.813Z,239.35
2023-04-26T10:12:18.881Z,238.23
2023-04-26T10:13:18.893Z,236.07
2023-04-26T10:14:18.944Z,234.98
2023-04-26T10:15:19.002Z,235.65
2023-04-26T10:16:19.047Z,234.60
2023-04-26T10:17:19.107Z,234.74
2023-04-26T10:18:19.148Z,233.08
2023-04-26T10:19:19.195Z,230.74
2023-04-26T10:20:19.780Z,231.48
2023-04-26T10:21:19.317Z,230.23
2023-04-26T10:22:19.370Z,227.23
2023-04-26T10:23:19.419Z,226.92
2023-04-26T10:24:19.472Z,227.58
2023-04-26T10:25:19.534Z,225.20
2023-04-26T10:26:19.661Z,223.47
2023-04-26T10:27:19.645Z,222.55
2023-04-26T10:28:19.700Z,220.95
2023-04-26T10:29:19.771Z,221.95
2023-04-26T10:30:19.865Z,222.77
2023-04-26T10:31:19.961Z,222.70
2023-04-26T10:32:19.954Z,225.27
2023-04-26T10:33:20.022Z,222.38
2023-04-26T10:34:20.066Z,222.86
2023-04-26T10:35:20.142Z,225.64
2023-04-26T10:36:20.308Z,224.76
2023-04-26T10:37:20.251Z,220.53
2023-04-26T10:38:20.301Z,218.66
2023-04-26T10:39:20.372Z,220.42
2023-04-26T10:40:20.797Z,216.89
2023-04-26T10:41:20.460Z,216.19
2023-04-26T10:42:21.333Z,214.15
2023-04-26T10:43:20.586Z,214.92
2023-04-26T10:44:21.292Z,219.58
2023-04-26T10:45:20.685Z,217.48
2023-04-26T10:46:20.772Z,210.93
2023-04-26T10:47:20.832Z,211.51
2023-04-26T10:48:20.867Z,199.71
2023-04-26T10:49:20.842Z,139.29
2023-04-26T10:50:20.862Z,82.66
2023-04-26T10:51:20.877Z,53.71
2023-04-26T10:52:20.912Z,29.47
2023-04-26T10:53:20.956Z,1.67
2023-04-26T10:54:21.014Z,13.71
2023-04-26T10:55:21.056Z,23.42
2023-04-26T10:56:21.105Z,30.82
2023-04-26T10:57:21.146Z,37.98
2023-04-26T10:58:21.184Z,45.72
2023-04-26T10:59:36.350Z,56.87
2023-04-26T11:00:22.188Z,56.89
2023-04-26T11:01:21.238Z,58.47
2023-04-26T11:02:21.217Z,65.05
2023-04-26T11:03:21.317Z,78.70
2023-04-26T11:04:21.313Z,97.22
2023-04-26T11:05:21.913Z,102.01
2023-04-26T11:06:21.163Z,107.51
2023-04-26T11:07:21.159Z,114.65
2023-04-26T11:08:21.145Z,120.20
2023-04-26T11:09:21.140Z,123.35
2023-04-26T11:10:21.154Z,127.85
2023-04-26T11:11:21.199Z,129.85
2023-04-26T11:12:21.250Z,131.98
2023-04-26T11:13:21.301Z,132.77
2023-04-26T11:14:21.346Z,134.55
2023-04-26T11:15:21.406Z,136.96
2023-04-26T11:16:21.514Z,140.20
2023-04-26T11:17:21.501Z,139.73
2023-04-26T11:18:21.530Z,142.54
2023-04-26T11:19:21.553Z,146.44
2023-04-26T11:20:21.613Z,145.29
2023-04-26T11:21:21.650Z,148.63
2023-04-26T11:22:21.694Z,150.15
2023-04-26T11:23:21.736Z,151.97
2023-04-26T11:24:21.772Z,150.55
2023-04-26T11:25:21.803Z,152.92
2023-04-26T11:26:21.924Z,154.08
2023-04-26T11:27:21.901Z,155.60
2023-04-26T11:28:21.928Z,156.05
2023-04-26T11:29:21.972Z,158.44
2023-04-26T11:30:22.024Z,157.24
2023-04-26T11:31:22.398Z,153.77
2023-04-26T11:32:22.113Z,150.51
2023-04-26T11:33:22.145Z,151.99
2023-04-26T11:34:22.195Z,155.06
2023-04-26T11:35:22.257Z,153.74
2023-04-26T11:36:22.270Z,152.21
2023-04-26T11:37:22.326Z,148.30
2023-04-26T11:38:22.358Z,152.15
2023-04-26T11:39:22.461Z,149.77
2023-04-26T11:40:22.437Z,147.14
2023-04-26T11:41:22.823Z,153.42
2023-04-26T11:42:22.526Z,151.87
2023-04-26T11:43:22.677Z,149.52
2023-04-26T11:44:23.321Z,151.19
2023-04-26T11:45:22.711Z,153.66
2023-04-26T11:46:22.744Z,150.87
2023-04-26T11:47:22.734Z,148.67
2023-04-26T11:48:22.785Z,149.90
2023-04-26T11:49:22.803Z,148.31
2023-04-26T11:50:22.848Z,148.56
2023-04-26T11:51:22.897Z,148.61
2023-04-26T11:52:22.961Z,148.46
2023-04-26T11:53:22.998Z,147.83
2023-04-26T11:54:23.041Z,152.50
2023-04-26T11:55:23.132Z,155.20
2023-04-26T11:56:23.148Z,156.12
2023-04-26T11:57:23.187Z,154.81
2023-04-26T11:58:23.273Z,158.46
2023-04-26T11:59:23.263Z,158.19
2023-04-26T12:00:23.305Z,153.66
2023-04-26T12:01:23.558Z,151.78
2023-04-26T12:02:23.616Z,155.15
2023-04-26T12:03:23.647Z,158.90
2023-04-26T12:04:23.578Z,159.01
2023-04-26T12:05:23.567Z,160.47
2023-04-26T12:06:23.558Z,162.14
2023-04-26T12:07:23.680Z,159.82
2023-04-26T12:08:23.643Z,157.53
2023-04-26T12:09:23.685Z,157.36
2023-04-26T12:10:23.812Z,158.32
2023-04-26T12:11:23.786Z,156.74
2023-04-26T12:12:23.833Z,159.01
2023-04-26T12:13:23.881Z,161.86
2023-04-26T12:14:24.832Z,164.51
2023-04-26T12:15:23.981Z,165.40
2023-04-26T12:16:26.853Z,167.13
2023-04-26T12:17:24.040Z,168.85
2023-04-26T12:18:24.050Z,169.02
2023-04-26T12:19:23.994Z,170.87
2023-04-26T12:20:23.970Z,171.15
2023-04-26T12:21:23.970Z,167.43
2023-04-26T12:22:23.968Z,164.26
2023-04-26T12:23:23.948Z,162.45
2023-04-26T12:24:23.975Z,161.91
2023-04-26T12:25:23.944Z,160.57
2023-04-26T12:26:23.976Z,161.13
2023-04-26T12:27:23.942Z,156.52
2023-04-26T12:28:23.975Z,152.52
2023-04-26T12:29:23.926Z,149.77
2023-04-26T12:30:23.910Z,149.68
2023-04-26T12:31:23.971Z,147.76